createdAt,value
2022-11-10T00:00:39.976Z,3.83
2022-11-10T00:04:03.201Z,3.50
2022-11-10T00:07:28.444Z,3.70
2022-11-10T00:11:01.431Z,3.47
2022-11-10T00:14:43.239Z,3.63
2022-11-10T00:18:08.257Z,3.10
2022-11-10T00:21:31.989Z,4.35
2022-11-10T00:24:57.207Z,3.40
2022-11-10T00:28:22.093Z,3.60
2022-11-10T00:31:45.690Z,3.30
2022-11-10T00:35:11.241Z,3.40
2022-11-10T00:38:35.097Z,3.10
2022-11-10T00:42:00.206Z,3.55
2022-11-10T00:45:24.460Z,3.53
2022-11-10T00:48:48.461Z,3.75
2022-11-10T00:52:15.305Z,3.80
2022-11-10T00:55:39.776Z,3.63
2022-11-10T00:59:05.022Z,3.90
2022-11-10T01:02:30.109Z,3.45
2022-11-10T01:05:53.447Z,3.35
2022-11-10T01:09:17.821Z,3.67
2022-11-10T01:12:41.729Z,3.80
2022-11-10T01:16:09.305Z,3.30
2022-11-10T01:19:33.609Z,2.78
2022-11-10T01:22:56.912Z,3.47
2022-11-10T01:26:21.439Z,3.40
2022-11-10T01:29:45.698Z,3.33
2022-11-10T01:33:14.067Z,3.15
2022-11-10T01:36:37.927Z,3.20
2022-11-10T01:40:01.622Z,2.97
2022-11-10T01:43:26.126Z,3.53
2022-11-10T01:46:49.651Z,3.05
2022-11-10T01:50:17.292Z,3.20
2022-11-10T01:53:46.506Z,3.30
2022-11-10T01:57:12.746Z,3.30
2022-11-10T02:00:37.527Z,3.10
2022-11-10T02:04:05.614Z,3.22
2022-11-10T02:07:31.145Z,3.40
2022-11-10T02:10:55.506Z,3.05
2022-11-10T02:14:19.642Z,3.00
2022-11-10T02:17:44.279Z,3.20
2022-11-10T02:21:11.730Z,3.17
2022-11-10T02:24:35.879Z,2.80
2022-11-10T02:27:59.161Z,2.78
2022-11-10T02:31:23.140Z,2.80
2022-11-10T02:34:47.198Z,3.22
2022-11-10T02:38:16.609Z,3.00
2022-11-10T02:41:40.098Z,2.95
2022-11-10T02:45:03.870Z,3.30
2022-11-10T02:48:27.650Z,2.63
2022-11-10T02:51:51.303Z,3.30
2022-11-10T02:55:17.224Z,2.85
2022-11-10T02:58:42.297Z,2.97
2022-11-10T03:02:05.910Z,2.60
2022-11-10T03:05:30.103Z,3.00
2022-11-10T03:08:54.296Z,2.85
2022-11-10T03:12:19.610Z,3.17
2022-11-10T03:15:45.139Z,3.60
2022-11-10T03:19:09.180Z,2.85
2022-11-10T03:22:32.851Z,3.10
2022-11-10T03:25:56.945Z,3.10
2022-11-10T03:29:21.569Z,3.30
2022-11-10T03:32:44.918Z,3.40
2022-11-10T03:36:11.117Z,3.60
2022-11-10T03:39:34.726Z,3.08
2022-11-10T03:42:58.581Z,3.15
2022-11-10T03:46:25.050Z,3.15
2022-11-10T03:49:49.442Z,3.08
2022-11-10T03:53:14.694Z,3.15
2022-11-10T03:56:38.693Z,3.42
2022-11-10T04:00:02.357Z,3.38
2022-11-10T04:03:28.423Z,3.20
2022-11-10T04:07:10.372Z,2.80
2022-11-10T04:10:37.193Z,2.95
2022-11-10T04:14:18.673Z,3.13
2022-11-10T04:17:42.989Z,3.40
2022-11-10T04:21:08.230Z,3.30
2022-11-10T04:24:32.053Z,3.25
2022-11-10T04:27:55.494Z,3.67
2022-11-10T04:31:20.765Z,3.22
2022-11-10T04:34:44.419Z,3.15
2022-11-10T04:38:11.793Z,3.33
2022-11-10T04:41:35.429Z,3.03
2022-11-10T04:44:59.515Z,3.03
2022-11-10T04:48:23.290Z,2.88
2022-11-10T04:51:46.660Z,3.10
2022-11-10T04:55:12.446Z,2.90
2022-11-10T04:58:36.184Z,2.90
2022-11-10T05:01:59.505Z,3.60
2022-11-10T05:05:23.013Z,2.92
2022-11-10T05:08:47.548Z,3.03
2022-11-10T05:12:17.399Z,3.22
2022-11-10T05:15:45.330Z,3.10
2022-11-10T05:19:10.163Z,2.95
2022-11-10T05:22:34.119Z,2.75
2022-11-10T05:25:57.252Z,2.90
2022-11-10T05:29:23.297Z,2.90
2022-11-10T05:32:46.082Z,3.03
2022-11-10T05:36:11.445Z,3.00
2022-11-10T05:39:35.152Z,3.30
2022-11-10T05:42:59.061Z,3.13
2022-11-10T05:46:23.819Z,2.83
2022-11-10T05:49:47.439Z,3.58
2022-11-10T05:53:13.604Z,3.10
2022-11-10T05:56:38.819Z,3.17
2022-11-10T06:00:02.413Z,3.30
2022-11-10T06:03:27.868Z,3.63
2022-11-10T06:06:51.869Z,3.20
2022-11-10T06:10:16.069Z,3.38
2022-11-10T06:13:45.475Z,3.40
2022-11-10T06:17:10.481Z,3.67
2022-11-10T06:20:35.446Z,3.50
2022-11-10T06:23:59.480Z,3.85
2022-11-10T06:27:22.806Z,4.28
2022-11-10T06:30:47.141Z,4.50
2022-11-10T06:34:11.469Z,3.83
2022-11-10T06:37:39.591Z,4.22
2022-11-10T06:41:03.429Z,3.83
2022-11-10T06:44:26.932Z,4.25
2022-11-10T06:48:13.751Z,4.05
2022-11-10T06:51:39.185Z,4.13
2022-11-10T06:55:05.681Z,4.40
2022-11-10T06:58:29.498Z,4.47
2022-11-10T07:01:52.995Z,4.20
2022-11-10T07:05:17.385Z,4.10
2022-11-10T07:08:40.853Z,4.70
2022-11-10T07:12:07.353Z,4.22
2022-11-10T07:15:30.862Z,4.60
2022-11-10T07:18:54.730Z,4.35
2022-11-10T07:22:18.689Z,4.40
2022-11-10T07:26:06.135Z,4.43
2022-11-10T07:29:44.447Z,4.53
2022-11-10T07:33:14.101Z,4.15
2022-11-10T07:36:51.656Z,4.47
2022-11-10T07:40:17.637Z,4.28
2022-11-10T07:43:41.369Z,4.78
2022-11-10T07:47:07.209Z,4.07
2022-11-10T07:50:31.188Z,4.65
2022-11-10T07:53:54.992Z,4.55
2022-11-10T07:57:18.231Z,4.22
2022-11-10T08:00:43.389Z,4.28
2022-11-10T08:04:08.753Z,4.50
2022-11-10T08:07:32.798Z,4.50
2022-11-10T08:11:10.444Z,4.50
2022-11-10T08:14:36.913Z,4.93
2022-11-10T08:18:01.122Z,4.50
2022-11-10T08:21:43.399Z,4.32
2022-11-10T08:25:07.791Z,4.80
2022-11-10T08:28:31.690Z,4.80
2022-11-10T08:31:55.220Z,4.53
2022-11-10T08:35:43.988Z,4.63
2022-11-10T08:39:38.515Z,4.07
2022-11-10T08:43:07.367Z,3.85
2022-11-10T08:46:47.024Z,3.72
2022-11-10T08:50:31.997Z,3.30
2022-11-10T08:53:55.550Z,3.80
2022-11-10T08:57:23.458Z,3.53
2022-11-10T09:00:47.902Z,3.13
2022-11-10T09:04:26.200Z,3.00
2022-11-10T09:07:51.572Z,2.97
2022-11-10T09:11:17.908Z,2.95
2022-11-10T09:14:42.987Z,2.65
2022-11-10T09:18:09.190Z,2.67
2022-11-10T09:21:32.622Z,2.38
2022-11-10T09:24:56.118Z,2.35
2022-11-10T09:28:21.352Z,2.50
2022-11-10T09:31:46.923Z,2.88
2022-11-10T09:35:11.612Z,2.55
2022-11-10T09:38:35.510Z,2.80
2022-11-10T09:41:59.039Z,2.80
2022-11-10T09:45:27.609Z,2.67
2022-11-10T09:49:13.306Z,2.70
2022-11-10T09:52:56.561Z,2.00
2022-11-10T09:56:24.194Z,2.50
2022-11-10T09:59:48.092Z,2.33
2022-11-10T10:03:24.550Z,2.17
2022-11-10T10:07:10.678Z,2.15
2022-11-10T10:10:40.961Z,2.55
2022-11-10T10:14:29.606Z,2.55
2022-11-10T10:18:03.699Z,2.30
2022-11-10T10:21:42.183Z,2.05
2022-11-10T10:25:20.157Z,2.47
2022-11-10T10:28:47.263Z,2.35
2022-11-10T10:32:16.237Z,2.13
2022-11-10T10:35:41.983Z,2.10
2022-11-10T10:39:11.140Z,2.35
2022-11-10T10:42:38.869Z,2.22
2022-11-10T10:46:09.044Z,1.90
2022-11-10T10:49:34.628Z,2.00
2022-11-10T10:53:12.239Z,2.70
2022-11-10T10:56:36.719Z,2.55
2022-11-10T11:00:21.593Z,2.50
2022-11-10T11:03:48.186Z,2.35
2022-11-10T11:07:23.158Z,2.83
2022-11-10T11:10:48.549Z,2.20
2022-11-10T11:14:22.260Z,2.72
2022-11-10T11:18:14.066Z,2.00
2022-11-10T11:21:50.762Z,2.25
2022-11-10T11:25:24.041Z,2.30
2022-11-10T11:28:58.921Z,2.00
2022-11-10T11:33:12.830Z,2.10
2022-11-10T11:36:48.306Z,2.50
2022-11-10T11:40:26.762Z,1.90
2022-11-10T11:44:13.105Z,2.15
2022-11-10T11:47:55.351Z,1.80
2022-11-10T11:51:27.458Z,2.50
2022-11-10T11:55:11.053Z,1.90
2022-11-10T11:58:44.985Z,2.00
2022-11-10T12:02:30.077Z,1.80
2022-11-10T12:06:11.913Z,2.08
2022-11-10T12:09:44.969Z,1.92
2022-11-10T12:13:39.547Z,2.00
2022-11-10T12:17:12.395Z,2.15
2022-11-10T12:20:49.739Z,1.75
2022-11-10T12:24:35.652Z,2.50
2022-11-10T12:28:12.880Z,1.80
2022-11-10T12:31:40.150Z,1.77
2022-11-10T12:35:11.877Z,2.15
2022-11-10T12:38:45.871Z,1.90
2022-11-10T12:42:16.098Z,2.00
2022-11-10T12:45:44.242Z,2.13
2022-11-10T12:49:18.226Z,1.85
2022-11-10T12:52:47.607Z,1.85
2022-11-10T12:56:19.008Z,2.35
2022-11-10T12:59:43.938Z,1.77
2022-11-10T13:03:27.201Z,1.73
2022-11-10T13:06:55.419Z,1.75
2022-11-10T13:10:25.015Z,1.90
2022-11-10T13:13:59.280Z,1.90
2022-11-10T13:17:56.197Z,2.15
2022-11-10T13:22:18.696Z,1.95
2022-11-10T13:26:03.682Z,2.05
2022-11-10T13:29:37.670Z,2.22
2022-11-10T13:33:37.482Z,2.15
2022-11-10T13:37:01.871Z,1.80
2022-11-10T13:40:39.672Z,1.90
2022-11-10T13:44:03.678Z,2.50
2022-11-10T13:47:47.810Z,2.03
2022-11-10T13:51:32.408Z,2.40
2022-11-10T13:55:42.248Z,2.13
2022-11-10T13:59:19.029Z,2.55
2022-11-10T14:02:54.920Z,2.60
2022-11-10T14:06:22.909Z,1.92
2022-11-10T14:09:49.321Z,1.70
2022-11-10T14:13:20.357Z,2.00
2022-11-10T14:16:45.019Z,1.95
2022-11-10T14:20:23.686Z,2.80
2022-11-10T14:23:49.985Z,2.88
2022-11-10T14:27:17.051Z,3.50
2022-11-10T14:30:41.798Z,3.80
2022-11-10T14:34:05.263Z,3.25
2022-11-10T14:37:30.645Z,3.95
2022-11-10T14:40:57.705Z,2.60
2022-11-10T14:44:26.411Z,2.30
2022-11-10T14:47:56.083Z,2.65
2022-11-10T14:51:20.733Z,2.65
2022-11-10T14:54:46.217Z,2.58
2022-11-10T14:58:15.750Z,3.05
2022-11-10T15:01:43.133Z,2.33
2022-11-10T15:05:14.618Z,2.72
2022-11-10T15:08:38.765Z,2.88
2022-11-10T15:12:21.713Z,2.60
2022-11-10T15:15:45.248Z,2.10
2022-11-10T15:19:25.639Z,2.30
2022-11-10T15:22:52.014Z,3.00
2022-11-10T15:26:22.706Z,2.80
2022-11-10T15:29:58.845Z,3.30
2022-11-10T15:33:32.531Z,3.45
2022-11-10T15:37:12.533Z,2.85
2022-11-10T15:40:46.121Z,2.70
2022-11-10T15:44:19.346Z,3.28
2022-11-10T15:47:43.800Z,2.53
2022-11-10T15:51:10.974Z,2.80
2022-11-10T15:54:36.856Z,2.25
2022-11-10T15:58:02.864Z,2.83
2022-11-10T16:01:26.254Z,3.70
2022-11-10T16:05:12.811Z,2.88
2022-11-10T16:08:37.969Z,2.80
2022-11-10T16:12:01.182Z,2.78
2022-11-10T16:15:26.740Z,2.33
2022-11-10T16:18:50.738Z,3.17
2022-11-10T16:22:14.233Z,2.63
2022-11-10T16:25:38.298Z,2.92
2022-11-10T16:29:01.798Z,2.90
2022-11-10T16:32:26.855Z,2.80
2022-11-10T16:35:52.664Z,3.05
2022-11-10T16:39:37.090Z,2.65
2022-11-10T16:43:00.437Z,3.72
2022-11-10T16:46:25.952Z,2.50
2022-11-10T16:50:31.331Z,2.95
2022-11-10T16:53:56.278Z,3.75
2022-11-10T16:57:40.753Z,2.90
2022-11-10T17:01:26.804Z,3.13
2022-11-10T17:04:50.320Z,2.85
2022-11-10T17:08:31.628Z,2.47
2022-11-10T17:12:16.632Z,3.15
2022-11-10T17:16:05.272Z,3.08
2022-11-10T17:19:49.052Z,3.08
2022-11-10T17:23:39.550Z,3.03
2022-11-10T17:27:03.022Z,3.80
2022-11-10T17:30:46.319Z,3.78
2022-11-10T17:34:31.669Z,3.55
2022-11-10T17:37:58.352Z,3.30
2022-11-10T17:41:36.849Z,3.50
2022-11-10T17:45:20.486Z,3.22
2022-11-10T17:48:47.867Z,3.30
2022-11-10T17:52:19.030Z,3.60
2022-11-10T17:55:42.369Z,3.03
2022-11-10T17:59:07.533Z,3.55
2022-11-10T18:02:31.115Z,3.42
2022-11-10T18:05:54.830Z,3.83
2022-11-10T18:09:36.777Z,3.30
2022-11-10T18:13:14.473Z,3.17
2022-11-10T18:16:43.574Z,3.58
2022-11-10T18:20:09.653Z,4.03
2022-11-10T18:23:56.572Z,4.18
2022-11-10T18:27:46.874Z,3.83
2022-11-10T18:31:26.167Z,4.70
2022-11-10T18:34:51.749Z,5.10
2022-11-10T18:38:35.908Z,4.50
2022-11-10T18:42:00.241Z,4.35
2022-11-10T18:45:44.181Z,3.42
2022-11-10T18:49:31.198Z,3.20
2022-11-10T18:52:55.559Z,2.90
2022-11-10T18:56:45.274Z,3.00
2022-11-10T19:00:12.793Z,4.50
2022-11-10T19:03:56.230Z,3.25
2022-11-10T19:07:19.925Z,2.50
2022-11-10T19:10:45.065Z,2.42
2022-11-10T19:14:08.108Z,3.30
2022-11-10T19:17:31.294Z,3.35
2022-11-10T19:20:54.734Z,2.80
2022-11-10T19:24:27.674Z,2.40
2022-11-10T19:27:54.184Z,2.80
2022-11-10T19:31:22.527Z,2.15
2022-11-10T19:34:45.921Z,2.50
2022-11-10T19:38:12.506Z,2.17
2022-11-10T19:41:35.659Z,2.47
2022-11-10T19:45:00.842Z,2.83
2022-11-10T19:48:24.472Z,2.30
2022-11-10T19:51:48.014Z,2.55
2022-11-10T19:55:12.423Z,2.28
2022-11-10T19:58:38.183Z,2.47
2022-11-10T20:02:03.765Z,1.83
2022-11-10T20:05:27.468Z,3.60
2022-11-10T20:08:51.231Z,2.38
2022-11-10T20:12:14.992Z,2.72
2022-11-10T20:15:40.813Z,3.28
2022-11-10T20:19:05.621Z,2.58
2022-11-10T20:22:29.036Z,2.10
2022-11-10T20:26:04.047Z,2.10
2022-11-10T20:29:27.780Z,2.50
2022-11-10T20:32:51.434Z,1.95
2022-11-10T20:36:20.509Z,2.22
2022-11-10T20:39:44.533Z,2.35
2022-11-10T20:43:07.811Z,2.22
2022-11-10T20:46:53.576Z,2.22
2022-11-10T20:50:18.256Z,2.25
2022-11-10T20:53:46.691Z,3.08
2022-11-10T20:57:10.662Z,2.72
2022-11-10T21:00:34.197Z,2.75
2022-11-10T21:03:57.365Z,2.60
2022-11-10T21:07:20.941Z,2.40
2022-11-10T21:10:53.023Z,2.30
2022-11-10T21:14:17.889Z,2.92
2022-11-10T21:17:44.211Z,2.22
2022-11-10T21:21:26.929Z,2.47
2022-11-10T21:24:49.885Z,2.13
2022-11-10T21:28:20.579Z,2.28
2022-11-10T21:31:44.392Z,2.28
2022-11-10T21:35:10.268Z,2.80
2022-11-10T21:38:33.130Z,2.08
2022-11-10T21:41:56.943Z,2.03
2022-11-10T21:45:21.479Z,1.88
2022-11-10T21:48:45.440Z,2.20
2022-11-10T21:52:08.580Z,1.73
2022-11-10T21:55:32.241Z,2.03
2022-11-10T21:59:36.233Z,2.00
2022-11-10T22:03:00.329Z,1.80
2022-11-10T22:06:23.455Z,1.73
2022-11-10T22:10:04.393Z,2.30
2022-11-10T22:13:45.415Z,1.60
2022-11-10T22:17:33.964Z,2.08
2022-11-10T22:20:57.288Z,1.98
2022-11-10T22:24:27.739Z,1.70
2022-11-10T22:27:50.948Z,1.77
2022-11-10T22:31:16.053Z,1.98
2022-11-10T22:34:40.581Z,2.05
2022-11-10T22:38:06.208Z,1.88
2022-11-10T22:41:46.906Z,1.75
2022-11-10T22:45:12.462Z,2.13
2022-11-10T22:48:35.704Z,2.13
2022-11-10T22:52:00.808Z,1.75
2022-11-10T22:55:24.318Z,2.13
2022-11-10T22:58:48.556Z,1.73
2022-11-10T23:02:11.987Z,1.80
2022-11-10T23:05:36.132Z,1.77
2022-11-10T23:09:01.181Z,2.03
2022-11-10T23:12:25.274Z,1.65
2022-11-10T23:15:53.069Z,2.47
2022-11-10T23:19:16.925Z,1.73
2022-11-10T23:22:40.148Z,1.92
2022-11-10T23:26:07.830Z,1.80
2022-11-10T23:29:31.758Z,1.80
2022-11-10T23:32:56.096Z,1.40
2022-11-10T23:36:21.332Z,1.50
2022-11-10T23:39:44.638Z,1.65
2022-11-10T23:43:10.705Z,2.30
2022-11-10T23:46:34.367Z,2.10
2022-11-10T23:49:57.571Z,1.73
2022-11-10T23:53:22.144Z,2.25
2022-11-10T23:56:46.342Z,1.88
